createdAt,value
2018-09-19T00:00:53.612Z,17.60
2018-09-19T00:03:21.818Z,17.67
2018-09-19T00:05:49.971Z,18.80
2018-09-19T00:08:18.088Z,17.87
2018-09-19T00:10:46.196Z,17.90
2018-09-19T00:13:14.270Z,15.87
2018-09-19T00:15:42.346Z,17.13
2018-09-19T00:18:10.509Z,18.53
2018-09-19T00:20:38.777Z,16.12
2018-09-19T00:23:06.909Z,17.35
2018-09-19T00:25:35.015Z,15.37
2018-09-19T00:28:03.469Z,18.20
2018-09-19T00:30:31.592Z,17.53
2018-09-19T00:32:59.739Z,16.97
2018-09-19T00:35:27.898Z,18.80
2018-09-19T00:37:55.996Z,16.07
2018-09-19T00:40:24.083Z,18.30
2018-09-19T00:42:52.229Z,19.27
2018-09-19T00:45:20.395Z,18.70
2018-09-19T00:47:48.521Z,15.90
2018-09-19T00:50:16.625Z,15.60
2018-09-19T00:52:44.727Z,16.77
2018-09-19T00:55:12.795Z,16.13
2018-09-19T00:57:40.906Z,18.07
2018-09-19T01:00:09.004Z,17.60
2018-09-19T01:02:37.107Z,17.40
2018-09-19T01:05:05.716Z,17.27
2018-09-19T01:07:34.019Z,16.77
2018-09-19T01:10:02.203Z,15.77
2018-09-19T01:12:30.324Z,17.82
2018-09-19T01:14:58.511Z,14.95
2018-09-19T01:17:26.586Z,17.10
2018-09-19T01:19:54.979Z,17.48
2018-09-19T01:22:23.182Z,17.97
2018-09-19T01:24:51.324Z,17.07
2018-09-19T01:27:19.451Z,17.47
2018-09-19T01:29:47.550Z,16.93
2018-09-19T01:32:15.631Z,16.57
2018-09-19T01:34:43.764Z,16.35
2018-09-19T01:37:11.926Z,17.67
2018-09-19T01:39:40.064Z,18.33
2018-09-19T01:42:08.192Z,17.00
2018-09-19T01:44:36.320Z,17.20
2018-09-19T01:47:04.456Z,17.43
2018-09-19T01:49:32.586Z,19.02
2018-09-19T01:52:00.645Z,17.77
2018-09-19T01:54:28.758Z,17.20
2018-09-19T01:56:56.852Z,17.75
2018-09-19T01:59:25.040Z,16.12
2018-09-19T02:01:53.213Z,16.48
2018-09-19T02:04:21.325Z,16.70
2018-09-19T02:06:49.486Z,19.07
2018-09-19T02:09:17.682Z,15.80
2018-09-19T02:11:45.853Z,17.80
2018-09-19T02:14:14.000Z,17.92
2018-09-19T02:16:42.095Z,17.82
2018-09-19T02:19:10.327Z,19.32
2018-09-19T02:21:38.524Z,17.82
2018-09-19T02:24:06.652Z,16.95
2018-09-19T02:26:34.755Z,19.70
2018-09-19T02:29:02.981Z,17.80
2018-09-19T02:31:31.076Z,20.47
2018-09-19T02:33:59.189Z,18.45
2018-09-19T02:36:27.802Z,18.07
2018-09-19T02:38:57.938Z,19.23
2018-09-19T02:41:26.079Z,18.73
2018-09-19T02:43:54.232Z,18.80
2018-09-19T02:46:22.378Z,19.27
2018-09-19T02:48:50.456Z,19.25
2018-09-19T02:51:18.876Z,19.95
2018-09-19T02:53:47.965Z,20.37
2018-09-19T02:56:16.058Z,18.30
2018-09-19T02:58:44.322Z,19.12
2018-09-19T03:01:12.445Z,19.30
2018-09-19T03:03:40.588Z,21.70
2018-09-19T03:06:08.757Z,19.42
2018-09-19T03:08:36.922Z,19.92
2018-09-19T03:11:05.020Z,21.42
2018-09-19T03:13:33.187Z,18.17
2018-09-19T03:16:01.349Z,20.40
2018-09-19T03:18:29.508Z,18.05
2018-09-19T03:20:57.665Z,22.40
2018-09-19T03:23:25.825Z,16.62
2018-09-19T03:25:53.962Z,18.80
2018-09-19T03:28:22.193Z,21.68
2018-09-19T03:30:50.338Z,23.52
2018-09-19T03:33:18.446Z,19.45
2018-09-19T03:35:46.580Z,21.55
2018-09-19T03:38:17.741Z,20.62
2018-09-19T03:40:45.847Z,20.43
2018-09-19T03:43:14.007Z,19.32
2018-09-19T03:45:42.248Z,20.75
2018-09-19T03:48:10.425Z,20.95
2018-09-19T03:50:38.567Z,21.10
2018-09-19T03:53:06.709Z,21.60
2018-09-19T03:55:34.815Z,23.00
2018-09-19T03:58:03.041Z,20.27
2018-09-19T04:00:31.322Z,19.45
2018-09-19T04:02:59.474Z,22.90
2018-09-19T04:05:27.630Z,18.17
2018-09-19T04:07:55.796Z,23.47
2018-09-19T04:10:23.943Z,22.10
2018-09-19T04:12:52.096Z,21.42
2018-09-19T04:15:20.313Z,21.97
2018-09-19T04:17:48.515Z,21.70
2018-09-19T04:20:16.665Z,22.30
2018-09-19T04:22:44.819Z,21.40
2018-09-19T04:25:13.021Z,22.22
2018-09-19T04:27:41.152Z,21.90
2018-09-19T04:30:09.317Z,21.93
2018-09-19T04:32:37.471Z,20.52
2018-09-19T04:35:05.595Z,22.05
2018-09-19T04:37:33.781Z,21.35
2018-09-19T04:40:01.895Z,23.90
2018-09-19T04:42:30.015Z,21.40
2018-09-19T04:44:58.244Z,22.22
2018-09-19T04:47:26.362Z,20.10
2018-09-19T04:49:54.528Z,22.80
2018-09-19T04:52:22.735Z,22.35
2018-09-19T04:54:51.006Z,23.87
2018-09-19T04:57:19.189Z,21.27
2018-09-19T04:59:47.311Z,21.23
2018-09-19T05:02:15.484Z,23.90
2018-09-19T05:04:43.654Z,21.07
2018-09-19T05:07:11.902Z,21.68
2018-09-19T05:09:40.042Z,19.98
2018-09-19T05:12:08.266Z,21.17
2018-09-19T05:14:36.494Z,22.45
2018-09-19T05:17:04.613Z,22.15
2018-09-19T05:19:32.814Z,22.05
2018-09-19T05:22:01.004Z,29.35
2018-09-19T05:24:29.186Z,28.23
2018-09-19T05:26:57.275Z,33.00
2018-09-19T05:29:25.446Z,21.95
2018-09-19T05:31:53.589Z,20.95
2018-09-19T05:34:21.797Z,24.40
2018-09-19T05:36:49.940Z,19.48
2018-09-19T05:39:18.068Z,23.65
2018-09-19T05:41:46.224Z,21.90
2018-09-19T05:44:14.348Z,21.50
2018-09-19T05:46:42.604Z,23.00
2018-09-19T05:49:11.008Z,22.20
2018-09-19T05:51:39.204Z,23.50
2018-09-19T05:54:07.361Z,18.73
2018-09-19T05:56:36.187Z,21.62
2018-09-19T05:59:04.417Z,20.77
2018-09-19T06:01:32.531Z,21.35
2018-09-19T06:04:00.626Z,22.95
2018-09-19T06:06:28.712Z,20.47
2018-09-19T06:08:56.940Z,21.85
2018-09-19T06:11:25.033Z,17.07
2018-09-19T06:13:53.377Z,18.97
2018-09-19T06:16:21.716Z,16.70
2018-09-19T06:21:20.856Z,16.57
2018-09-19T06:23:48.972Z,17.60
2018-09-19T06:26:17.071Z,17.77
2018-09-19T06:28:45.252Z,17.87
2018-09-19T06:31:13.449Z,17.33
2018-09-19T06:33:41.621Z,15.40
2018-09-19T06:36:09.766Z,16.43
2018-09-19T06:38:37.902Z,15.70
2018-09-19T06:41:06.185Z,13.93
2018-09-19T06:43:34.217Z,13.70
2018-09-19T06:48:36.862Z,13.37
2018-09-19T06:51:05.004Z,13.67
2018-09-19T06:53:33.344Z,12.30
2018-09-19T06:56:01.479Z,12.57
2018-09-19T06:58:29.658Z,12.90
2018-09-19T07:00:57.806Z,13.47
2018-09-19T07:03:25.945Z,14.93
2018-09-19T07:05:54.122Z,14.00
2018-09-19T07:08:22.199Z,13.53
2018-09-19T07:10:50.371Z,13.63
2018-09-19T07:13:18.512Z,14.37
2018-09-19T07:15:46.674Z,13.03
2018-09-19T07:18:14.826Z,16.83
2018-09-19T07:20:42.927Z,14.43
2018-09-19T07:23:11.027Z,14.87
2018-09-19T07:25:39.173Z,15.93
2018-09-19T07:28:07.372Z,14.60
2018-09-19T07:30:35.554Z,12.73
2018-09-19T07:33:03.696Z,14.37
2018-09-19T07:35:31.828Z,14.60
2018-09-19T07:37:59.998Z,12.90
2018-09-19T07:40:28.241Z,13.60
2018-09-19T07:42:56.280Z,13.77
2018-09-19T07:45:30.797Z,14.90
2018-09-19T07:47:58.958Z,11.57
2018-09-19T07:50:27.154Z,13.63
2018-09-19T07:52:55.326Z,13.50
2018-09-19T07:55:23.511Z,12.90
2018-09-19T07:57:51.622Z,13.87
2018-09-19T08:00:19.826Z,13.47
2018-09-19T08:02:47.953Z,12.03
2018-09-19T08:05:16.144Z,11.70
2018-09-19T08:07:44.285Z,13.07
2018-09-19T08:10:12.424Z,12.30
2018-09-19T08:12:40.524Z,12.17
2018-09-19T08:15:08.682Z,12.17
2018-09-19T08:17:36.879Z,15.47
2018-09-19T08:20:04.973Z,13.27
2018-09-19T08:22:33.138Z,12.30
2018-09-19T08:25:01.278Z,11.17
2018-09-19T08:27:29.395Z,13.70
2018-09-19T08:29:57.539Z,11.70
2018-09-19T08:32:25.718Z,12.20
2018-09-19T08:34:53.873Z,10.97
2018-09-19T08:37:22.064Z,15.97
2018-09-19T08:39:50.175Z,11.63
2018-09-19T08:42:18.408Z,9.90
2018-09-19T08:44:46.512Z,12.10
2018-09-19T08:47:14.632Z,11.37
2018-09-19T08:49:42.732Z,26.30
2018-09-19T08:52:10.849Z,11.30
2018-09-19T08:54:38.954Z,8.93
2018-09-19T08:57:07.339Z,10.03
2018-09-19T08:59:35.475Z,9.77
2018-09-19T09:02:03.595Z,10.87
2018-09-19T09:04:31.670Z,10.50
2018-09-19T09:06:59.789Z,14.87
2018-09-19T09:09:27.875Z,10.90
2018-09-19T09:11:56.035Z,10.70
2018-09-19T09:14:24.195Z,15.63
2018-09-19T09:16:52.333Z,12.67
2018-09-19T09:19:20.457Z,11.43
2018-09-19T09:21:48.573Z,12.50
2018-09-19T09:24:16.701Z,13.20
2018-09-19T09:26:44.891Z,13.10
2018-09-19T09:29:13.032Z,11.43
2018-09-19T09:31:41.176Z,10.93
2018-09-19T09:34:09.350Z,11.93
2018-09-19T09:37:40.634Z,11.63
2018-09-19T09:40:08.810Z,11.17
2018-09-19T09:42:36.926Z,10.60
2018-09-19T09:45:05.013Z,10.33
2018-09-19T09:47:33.122Z,10.07
2018-09-19T09:50:01.227Z,10.97
2018-09-19T09:52:29.352Z,11.90
2018-09-19T09:54:57.500Z,12.27
2018-09-19T09:57:25.575Z,11.50
2018-09-19T09:59:53.687Z,10.83
2018-09-19T10:02:21.831Z,11.87
2018-09-19T10:04:50.013Z,12.60
2018-09-19T10:07:18.162Z,11.47
2018-09-19T10:09:46.267Z,11.20
2018-09-19T10:12:14.403Z,9.90
2018-09-19T10:14:42.565Z,12.23
2018-09-19T10:17:10.725Z,12.00
2018-09-19T10:19:38.873Z,12.40
2018-09-19T10:22:06.979Z,11.47
2018-09-19T10:24:35.157Z,10.20
2018-09-19T10:27:03.304Z,11.17
2018-09-19T10:29:31.505Z,14.13
2018-09-19T10:31:59.623Z,11.57
2018-09-19T10:34:27.733Z,14.87
2018-09-19T10:36:55.906Z,12.10
2018-09-19T10:39:24.028Z,12.50
2018-09-19T10:41:52.145Z,11.37
2018-09-19T10:44:20.247Z,13.37
2018-09-19T10:46:48.356Z,13.57
2018-09-19T10:49:16.487Z,12.70
2018-09-19T10:51:44.947Z,13.63
2018-09-19T10:54:13.065Z,13.63
2018-09-19T10:56:41.163Z,14.07
2018-09-19T10:59:09.325Z,17.43
2018-09-19T11:01:37.492Z,13.07
2018-09-19T11:04:05.824Z,12.50
2018-09-19T11:06:33.997Z,12.60
2018-09-19T11:09:02.116Z,13.73
2018-09-19T11:11:30.282Z,12.83
2018-09-19T11:13:58.384Z,12.57
2018-09-19T11:16:26.456Z,10.90
2018-09-19T11:18:54.511Z,12.87
2018-09-19T11:21:22.686Z,12.60
2018-09-19T11:23:50.814Z,12.87
2018-09-19T11:26:19.121Z,10.93
2018-09-19T11:28:47.278Z,12.43
2018-09-19T11:31:15.427Z,12.90
2018-09-19T11:33:43.558Z,13.13
2018-09-19T11:36:11.629Z,13.23
2018-09-19T11:38:39.845Z,12.33
2018-09-19T11:41:08.391Z,14.83
2018-09-19T11:43:36.711Z,15.40
2018-09-19T11:46:04.870Z,17.13
2018-09-19T11:48:33.018Z,14.60
2018-09-19T11:51:01.209Z,13.50
2018-09-19T11:53:29.856Z,15.87
2018-09-19T11:55:59.535Z,16.33
2018-09-19T11:58:28.610Z,19.87
2018-09-19T12:00:56.701Z,17.80
2018-09-19T12:03:24.807Z,18.47
2018-09-19T12:05:52.974Z,23.27
2018-09-19T12:08:21.435Z,18.63
2018-09-19T12:10:49.595Z,17.80
2018-09-19T12:13:17.683Z,17.17
2018-09-19T12:15:45.861Z,14.17
2018-09-19T12:18:14.005Z,13.70
2018-09-19T12:20:42.189Z,14.47
2018-09-19T12:23:10.470Z,14.90
2018-09-19T12:25:38.592Z,13.77
2018-09-19T12:28:07.121Z,14.07
2018-09-19T12:30:35.235Z,13.73
2018-09-19T12:33:03.370Z,13.43
2018-09-19T12:35:31.758Z,13.87
2018-09-19T12:37:59.859Z,16.13
2018-09-19T12:40:28.062Z,12.50
2018-09-19T12:42:56.198Z,12.20
2018-09-19T12:45:24.349Z,11.57
2018-09-19T12:47:52.456Z,12.33
2018-09-19T12:50:20.629Z,12.57
2018-09-19T12:52:48.747Z,11.20
2018-09-19T12:55:16.889Z,12.50
2018-09-19T12:57:45.029Z,11.40
2018-09-19T13:00:13.149Z,12.23
2018-09-19T13:02:41.293Z,11.47
2018-09-19T13:05:09.431Z,12.33
2018-09-19T13:07:37.616Z,13.10
2018-09-19T13:10:05.805Z,10.30
2018-09-19T13:12:33.984Z,10.43
2018-09-19T13:15:02.137Z,11.30
2018-09-19T13:17:30.228Z,10.50
2018-09-19T13:19:58.338Z,10.33
2018-09-19T13:22:26.537Z,10.80
2018-09-19T13:24:54.652Z,11.03
2018-09-19T13:27:22.860Z,10.70
2018-09-19T13:29:51.360Z,15.00
2018-09-19T13:32:19.489Z,10.77
2018-09-19T13:34:47.625Z,11.30
2018-09-19T13:37:15.779Z,10.27
2018-09-19T13:39:43.916Z,10.73
2018-09-19T13:42:12.067Z,10.37
2018-09-19T13:44:40.189Z,11.23
2018-09-19T13:47:08.280Z,10.23
2018-09-19T13:51:15.382Z,11.97
2018-09-19T13:53:43.578Z,10.43
2018-09-19T13:56:11.688Z,10.90
2018-09-19T13:58:39.828Z,11.43
2018-09-19T14:01:07.973Z,10.20
2018-09-19T14:03:36.092Z,11.40
2018-09-19T14:06:04.337Z,10.30
2018-09-19T14:08:32.512Z,10.07
2018-09-19T14:11:00.624Z,10.00
2018-09-19T14:13:28.732Z,9.63
2018-09-19T14:15:56.896Z,10.30
2018-09-19T14:18:25.053Z,10.70
2018-09-19T14:20:53.246Z,9.93
2018-09-19T14:23:21.455Z,9.67
2018-09-19T14:25:49.624Z,10.20
2018-09-19T14:28:17.770Z,9.33
2018-09-19T14:30:45.951Z,10.07
2018-09-19T14:33:14.094Z,8.60
2018-09-19T14:35:42.342Z,10.00
2018-09-19T14:38:10.948Z,9.77
2018-09-19T14:40:39.151Z,9.10
2018-09-19T14:43:07.313Z,8.10
2018-09-19T14:45:35.473Z,12.27
2018-09-19T14:48:03.575Z,8.43
2018-09-19T14:50:31.721Z,7.83
2018-09-19T14:53:00.013Z,7.87
2018-09-19T14:55:28.268Z,8.83
2018-09-19T14:57:56.451Z,8.07
2018-09-19T15:00:24.749Z,8.60
2018-09-19T15:02:52.945Z,9.13
2018-09-19T15:05:21.207Z,8.33
2018-09-19T15:07:49.335Z,9.40
2018-09-19T15:10:17.471Z,9.93
2018-09-19T15:12:45.626Z,11.13
2018-09-19T15:15:13.820Z,7.93
2018-09-19T15:17:42.009Z,9.27
2018-09-19T15:20:10.112Z,8.43
2018-09-19T15:22:38.256Z,7.87
2018-09-19T15:25:06.410Z,8.20
2018-09-19T15:27:34.545Z,8.40
2018-09-19T15:30:02.751Z,9.17
2018-09-19T15:32:32.594Z,9.00
2018-09-19T15:35:00.993Z,9.30
2018-09-19T15:37:29.191Z,8.07
2018-09-19T15:39:57.296Z,8.47
2018-09-19T15:42:25.444Z,8.83
2018-09-19T15:44:53.584Z,8.87
2018-09-19T15:47:21.749Z,7.20
2018-09-19T15:49:49.911Z,8.37
2018-09-19T15:52:18.090Z,7.53
2018-09-19T15:54:46.220Z,8.10
2018-09-19T15:57:14.487Z,8.87
2018-09-19T15:59:42.633Z,8.03
2018-09-19T16:02:10.778Z,8.57
2018-09-19T16:04:39.110Z,8.70
2018-09-19T16:07:07.218Z,9.23
2018-09-19T16:09:35.382Z,11.20
2018-09-19T16:12:03.401Z,8.67
2018-09-19T16:14:33.576Z,8.20
2018-09-19T16:17:01.679Z,10.40
2018-09-19T16:19:29.865Z,9.67
2018-09-19T16:21:57.951Z,8.83
2018-09-19T16:24:26.056Z,8.80
2018-09-19T16:26:54.216Z,8.20
2018-09-19T16:29:22.347Z,7.97
2018-09-19T16:31:50.509Z,8.77
2018-09-19T16:34:18.834Z,10.40
2018-09-19T16:36:47.027Z,9.50
2018-09-19T16:39:15.157Z,10.00
2018-09-19T16:41:43.313Z,9.07
2018-09-19T16:44:11.564Z,8.60
2018-09-19T16:46:39.746Z,9.07
2018-09-19T16:49:08.318Z,9.17
2018-09-19T16:51:36.682Z,9.97
2018-09-19T16:54:04.852Z,10.40
2018-09-19T16:56:33.048Z,9.77
2018-09-19T16:59:01.281Z,11.33
2018-09-19T17:01:29.756Z,10.27
2018-09-19T17:03:58.334Z,10.40
2018-09-19T17:06:26.571Z,9.57
2018-09-19T17:08:54.778Z,10.27
2018-09-19T17:11:23.268Z,9.47
2018-09-19T17:13:51.708Z,10.00
2018-09-19T17:16:19.862Z,9.40
2018-09-19T17:18:48.404Z,9.70
2018-09-19T17:21:16.749Z,10.50
2018-09-19T17:23:44.970Z,10.40
2018-09-19T17:26:13.083Z,10.40
2018-09-19T17:28:42.731Z,9.80
2018-09-19T17:31:11.176Z,10.70
2018-09-19T17:33:39.358Z,10.63
2018-09-19T17:36:07.561Z,11.20
2018-09-19T17:38:35.717Z,11.50
2018-09-19T17:41:03.938Z,10.40
2018-09-19T17:43:32.255Z,9.60
2018-09-19T17:46:00.440Z,10.83
2018-09-19T17:48:28.790Z,11.07
2018-09-19T17:50:57.663Z,11.67
2018-09-19T17:53:25.832Z,11.57
2018-09-19T17:55:54.229Z,9.77
2018-09-19T17:58:22.494Z,10.67
2018-09-19T18:00:50.736Z,10.97
2018-09-19T18:03:18.833Z,12.83
2018-09-19T18:05:46.979Z,11.50
2018-09-19T18:08:15.308Z,10.63
2018-09-19T18:10:43.388Z,11.43
2018-09-19T18:13:11.498Z,10.83
2018-09-19T18:15:40.345Z,10.97
2018-09-19T18:18:08.649Z,11.50
2018-09-19T18:20:36.978Z,11.50
2018-09-19T18:23:05.175Z,10.90
2018-09-19T18:25:33.283Z,12.27
2018-09-19T18:28:01.491Z,11.87
2018-09-19T18:30:29.786Z,11.77
2018-09-19T18:32:58.337Z,12.77
2018-09-19T18:35:26.493Z,11.90
2018-09-19T18:37:54.714Z,11.13
2018-09-19T18:40:22.854Z,11.90
2018-09-19T18:42:52.545Z,11.70
2018-09-19T18:45:20.710Z,12.07
2018-09-19T18:47:48.921Z,11.90
2018-09-19T18:50:17.060Z,12.80
2018-09-19T18:52:45.298Z,14.20
2018-09-19T18:55:13.473Z,12.70
2018-09-19T18:57:41.634Z,14.30
2018-09-19T19:00:09.802Z,14.97
2018-09-19T19:02:38.540Z,14.57
2018-09-19T19:05:06.744Z,13.27
2018-09-19T19:07:34.904Z,13.20
2018-09-19T19:10:03.208Z,12.83
2018-09-19T19:12:31.843Z,12.43
2018-09-19T19:15:00.181Z,14.20
2018-09-19T19:17:28.548Z,15.93
2018-09-19T19:19:57.257Z,12.67
2018-09-19T19:22:25.678Z,12.73
2018-09-19T19:24:53.995Z,13.30
2018-09-19T19:27:22.217Z,13.00
2018-09-19T19:29:50.440Z,12.83
2018-09-19T19:32:18.728Z,13.07
2018-09-19T19:34:46.963Z,12.00
2018-09-19T19:37:21.181Z,12.93
2018-09-19T19:39:49.332Z,13.30
2018-09-19T19:42:17.683Z,14.57
2018-09-19T19:44:45.800Z,14.13
2018-09-19T19:47:13.951Z,13.67
2018-09-19T19:49:42.060Z,14.20
2018-09-19T19:52:10.177Z,14.23
2018-09-19T19:54:38.303Z,14.23
2018-09-19T19:57:06.643Z,13.93
2018-09-19T19:59:34.909Z,15.20
2018-09-19T20:02:03.124Z,14.37
2018-09-19T20:04:31.293Z,16.30
2018-09-19T20:06:59.474Z,15.00
2018-09-19T20:09:27.702Z,13.57
2018-09-19T20:11:55.881Z,16.00
2018-09-19T20:14:24.117Z,13.50
2018-09-19T20:16:52.290Z,14.93
2018-09-19T20:19:20.510Z,13.33
2018-09-19T20:21:48.765Z,15.57
2018-09-19T20:24:16.924Z,15.60
2018-09-19T20:26:45.097Z,15.73
2018-09-19T20:29:13.293Z,13.63
2018-09-19T20:31:41.436Z,15.07
2018-09-19T20:34:09.603Z,14.60
2018-09-19T20:36:37.762Z,14.90
2018-09-19T20:39:07.803Z,15.00
2018-09-19T20:41:35.934Z,16.53
2018-09-19T20:44:04.282Z,14.03
2018-09-19T20:46:32.387Z,14.23
2018-09-19T20:49:00.483Z,16.20
2018-09-19T20:51:28.642Z,14.40
2018-09-19T20:53:56.727Z,13.00
2018-09-19T20:56:24.890Z,14.67
2018-09-19T20:58:52.971Z,13.97
2018-09-19T21:01:27.782Z,13.50
2018-09-19T21:03:55.916Z,12.93
2018-09-19T21:06:24.048Z,13.17
2018-09-19T21:08:52.213Z,13.87
2018-09-19T21:11:20.356Z,13.97
2018-09-19T21:13:48.481Z,13.97
2018-09-19T21:16:16.564Z,13.70
2018-09-19T21:18:44.728Z,11.90
2018-09-19T21:21:12.811Z,12.53
2018-09-19T21:23:41.033Z,11.17
2018-09-19T21:26:09.196Z,11.57
2018-09-19T21:28:37.354Z,13.03
2018-09-19T21:31:06.168Z,11.77
2018-09-19T21:33:34.285Z,10.73
2018-09-19T21:36:02.445Z,11.93
2018-09-19T21:38:30.684Z,11.13
2018-09-19T21:40:58.813Z,11.50
2018-09-19T21:43:26.948Z,11.83
2018-09-19T21:45:55.198Z,10.70
2018-09-19T21:48:23.302Z,12.10
2018-09-19T21:50:51.460Z,10.47
2018-09-19T21:53:19.571Z,10.87
2018-09-19T21:55:47.713Z,10.20
2018-09-19T21:58:15.833Z,12.30
2018-09-19T22:00:49.669Z,9.77
2018-09-19T22:03:18.160Z,12.50
2018-09-19T22:05:46.301Z,12.87
2018-09-19T22:08:14.438Z,11.20
2018-09-19T22:10:42.543Z,10.90
2018-09-19T22:13:10.682Z,10.47
2018-09-19T22:15:38.837Z,10.77
2018-09-19T22:18:06.968Z,9.30
2018-09-19T22:20:35.121Z,9.57
2018-09-19T22:23:03.283Z,9.97
2018-09-19T22:25:31.470Z,10.73
2018-09-19T22:27:59.555Z,9.93
2018-09-19T22:30:27.692Z,10.17
2018-09-19T22:35:30.457Z,9.07
2018-09-19T22:37:58.531Z,9.43
2018-09-19T22:40:26.625Z,9.63
2018-09-19T22:42:54.802Z,9.60
2018-09-19T22:45:22.942Z,8.53
2018-09-19T22:47:51.076Z,9.30
2018-09-19T22:50:19.213Z,8.70
2018-09-19T22:52:47.378Z,8.87
2018-09-19T22:55:15.488Z,8.07
2018-09-19T22:57:43.655Z,8.60
2018-09-19T23:00:11.863Z,8.77
2018-09-19T23:02:40.506Z,9.03
2018-09-19T23:05:08.657Z,8.97
2018-09-19T23:07:36.764Z,9.60
2018-09-19T23:10:04.857Z,9.67
2018-09-19T23:12:32.925Z,10.20
2018-09-19T23:15:01.055Z,10.47
2018-09-19T23:17:29.152Z,10.13
2018-09-19T23:19:57.237Z,10.10
2018-09-19T23:22:25.363Z,9.40
2018-09-19T23:24:53.501Z,9.57
2018-09-19T23:27:21.614Z,9.37
2018-09-19T23:29:49.749Z,8.67
2018-09-19T23:32:17.943Z,10.30
2018-09-19T23:34:46.098Z,10.23
2018-09-19T23:37:14.167Z,9.63
2018-09-19T23:39:42.309Z,9.73
2018-09-19T23:42:10.477Z,10.20
2018-09-19T23:44:38.618Z,10.50
2018-09-19T23:47:06.886Z,11.83
2018-09-19T23:49:35.142Z,11.13
2018-09-19T23:52:03.227Z,11.43
2018-09-19T23:54:31.399Z,12.10
2018-09-19T23:56:59.607Z,11.17
2018-09-19T23:59:27.781Z,12.17
